Time;durP1;ratioP1;P1;durP2;ratioP2;P2;SDS_P1;SDS_P2;PMS_P1;PMS_P2;Temp;Humidity;BMP_temperature;BMP_pressure;BME280_temperature;BME280_humidity;BME280_pressure;Samples;Min_cycle;Max_cycle;Signal;HPM_P1;HPM_P2
2023/04/05 00:01:30;;;;;;;15.48;7.32;;;;;;;;;;5002044;28;20508;-83
2023/04/05 00:04:02;;;;;;;12.07;6.82;;;;;;;;;;5002329;28;20060;-83
2023/04/05 00:06:33;;;;;;;13.70;6.80;;;;;;;;;;4983129;28;20042;-86
2023/04/05 00:09:07;;;;;;;12.10;6.80;;;;;;;;;;4991988;28;20119;-84
2023/04/05 00:11:42;;;;;;;13.18;7.25;;;;;;;;;;4984967;28;20050;-84
2023/04/05 00:14:18;;;;;;;12.65;7.35;;;;;;;;;;4983737;28;20069;-83
2023/04/05 00:17:17;;;;;;;13.98;7.63;;;;;;;;;;4998960;28;20108;-87
2023/04/05 00:19:55;;;;;;;14.35;7.32;;;;;;;;;;4993836;28;20046;-84
2023/04/05 00:22:40;;;;;;;;;;;;;;;;;;;;;
2023/04/05 00:25:19;;;;;;;17.63;8.13;;;;;;;;;;5000311;28;20057;-82
2023/04/05 00:27:51;;;;;;;12.23;6.43;;;;;;;;;;4984067;28;20050;-83
2023/04/05 00:30:20;;;;;;;14.98;7.00;;;;;;;;;;4999022;28;20061;-83
2023/04/05 00:32:49;;;;;;;14.27;7.03;;;;;;;;;;5000255;28;20050;-83
2023/04/05 00:35:27;;;;;;;14.68;7.47;;;;;;;;;;4984463;28;20048;-83
2023/04/05 00:37:53;;;;;;;18.42;8.07;;;;;;;;;;4982209;28;20043;-84
2023/04/05 00:40:22;;;;;;;13.52;7.40;;;;;;;;;;4983742;28;20083;-85
2023/04/05 00:42:51;;;;;;;15.68;7.80;;;;;;;;;;4998817;28;20046;-83
2023/04/05 00:45:33;;;;;;;14.43;8.13;;;;;;;;;;5000848;28;20066;-83
2023/04/05 00:48:05;;;;;;;15.38;7.63;;;;;;;;;;4984110;28;20050;-83
2023/04/05 00:50:40;;;;;;;14.68;8.05;;;;;;;;;;4989151;28;20054;-85
2023/04/05 00:53:09;;;;;;;17.10;8.02;;;;;;;;;;5003572;28;20058;-85
2023/04/05 00:55:47;;;;;;;12.90;7.60;;;;;;;;;;4985785;28;20084;-85
2023/04/05 00:58:27;;;;;;;17.92;7.80;;;;;;;;;;4990055;28;20092;-84
2023/04/05 01:01:06;;;;;;;17.50;9.07;;;;;;;;;;5005771;28;20146;-83
2023/04/05 01:03:35;;;;;;;16.00;8.07;;;;;;;;;;4990659;28;20072;-83
2023/04/05 01:06:13;;;;;;;16.70;8.35;;;;;;;;;;4991285;28;20050;-82
2023/04/05 01:08:51;;;;;;;14.18;7.63;;;;;;;;;;4992010;28;20042;-83
2023/04/05 01:11:23;;;;;;;13.13;7.78;;;;;;;;;;4992708;28;20050;-83
2023/04/05 01:13:58;;;;;;;17.02;9.20;;;;;;;;;;4993884;28;20162;-83
2023/04/05 01:16:26;;;;;;;13.77;8.95;;;;;;;;;;4993458;28;20041;-83
2023/04/05 01:19:03;;;;;;;17.08;9.32;;;;;;;;;;4993486;28;20108;-83
2023/04/05 01:21:36;;;;;;;14.98;9.30;;;;;;;;;;4994172;28;20077;-82
2023/04/05 01:24:29;;;;;;;13.27;8.35;;;;;;;;;;4994644;28;20042;-83
2023/04/05 01:27:01;;;;;;;16.25;8.90;;;;;;;;;;4993248;28;20558;-84
2023/04/05 01:29:30;;;;;;;15.30;7.57;;;;;;;;;;5008228;28;20039;-83
2023/04/05 01:32:15;;;;;;;14.02;8.00;;;;;;;;;;4986953;28;20042;-83
2023/04/05 01:34:57;;;;;;;14.98;8.65;;;;;;;;;;4987700;28;20133;-84
2023/04/05 01:37:26;;;;;;;14.52;8.20;;;;;;;;;;4992917;28;20518;-85
2023/04/05 01:39:56;;;;;;;18.30;8.10;;;;;;;;;;5002811;28;20065;-84
2023/04/05 01:42:28;;;;;;;15.23;8.45;;;;;;;;;;5005097;28;20097;-85
2023/04/05 01:44:58;;;;;;;13.75;8.27;;;;;;;;;;4991242;28;20046;-85
2023/04/05 01:47:27;;;;;;;16.15;8.82;;;;;;;;;;4990451;28;20554;-85
2023/04/05 01:49:56;;;;;;;;;;;;;;;;;;5005298;28;20072;-85
2023/04/05 01:52:22;;;;;;;15.68;8.38;;;;;;;;;;5001929;28;19929;-85
2023/04/05 01:54:49;;;;;;;12.80;8.07;;;;;;;;;;5003154;28;20065;-85
2023/04/05 01:57:18;;;;;;;16.20;8.88;;;;;;;;;;4986837;28;20116;-87
2023/04/05 01:59:44;;;;;;;15.63;8.98;;;;;;;;;;4988994;28;20084;-85
2023/04/05 02:02:10;;;;;;;15.13;8.90;;;;;;;;;;4988051;28;20104;-85
2023/04/05 02:04:36;;;;;;;15.20;8.73;;;;;;;;;;4989878;28;20074;-87
2023/04/05 02:07:03;;;;;;;13.90;8.88;;;;;;;;;;4988682;28;20093;-85
2023/04/05 02:09:29;;;;;;;17.17;9.10;;;;;;;;;;4989360;28;20050;-83
2023/04/05 02:11:56;;;;;;;15.05;8.48;;;;;;;;;;4988169;28;20082;-84
2023/04/05 02:14:22;;;;;;;16.35;8.25;;;;;;;;;;4997065;28;20030;-83
2023/04/05 02:16:48;;;;;;;15.15;8.50;;;;;;;;;;4999573;28;20344;-83
2023/04/05 02:19:14;;;;;;;15.38;8.80;;;;;;;;;;4993180;28;20046;-86
2023/04/05 02:21:41;;;;;;;16.48;8.95;;;;;;;;;;5008918;28;20050;-84
2023/04/05 02:24:07;;;;;;;17.25;9.43;;;;;;;;;;5007368;28;20042;-84
2023/04/05 02:26:34;;;;;;;16.13;8.32;;;;;;;;;;5005471;28;20057;-84
2023/04/05 02:29:00;;;;;;;18.58;8.95;;;;;;;;;;4988319;28;20106;-85
2023/04/05 02:31:26;;;;;;;14.23;7.97;;;;;;;;;;4989597;28;20077;-85
2023/04/05 02:33:54;;;;;;;15.38;8.93;;;;;;;;;;4977059;28;20081;-84
2023/04/05 02:36:21;;;;;;;16.40;8.82;;;;;;;;;;4992014;28;20046;-84
2023/04/05 02:38:47;;;;;;;16.30;8.73;;;;;;;;;;4991057;28;20046;-85
2023/04/05 02:41:13;;;;;;;13.88;8.25;;;;;;;;;;4990787;28;20631;-84
2023/04/05 02:43:42;;;;;;;17.30;9.20;;;;;;;;;;4975543;28;20113;-87
2023/04/05 02:46:09;;;;;;;16.63;9.38;;;;;;;;;;5007207;28;20784;-83
2023/04/05 02:48:35;;;;;;;18.15;9.13;;;;;;;;;;4981763;28;20102;-86
2023/04/05 02:51:02;;;;;;;16.38;9.15;;;;;;;;;;5006430;28;20035;-85
2023/04/05 02:53:28;;;;;;;20.88;9.25;;;;;;;;;;4998700;28;20042;-84
2023/04/05 02:55:55;;;;;;;17.63;9.45;;;;;;;;;;4988852;28;20046;-84
2023/04/05 02:58:22;;;;;;;16.80;8.80;;;;;;;;;;5009263;28;20126;-85
2023/04/05 03:00:50;;;;;;;16.38;9.05;;;;;;;;;;5009594;28;20097;-84
2023/04/05 03:03:20;;;;;;;16.65;9.15;;;;;;;;;;4992763;28;20567;-84
2023/04/05 03:05:47;;;;;;;17.52;9.10;;;;;;;;;;5015364;28;20094;-84
2023/04/05 03:08:17;;;;;;;19.67;9.85;;;;;;;;;;4993492;28;20443;-84
2023/04/05 03:10:47;;;;;;;16.33;8.88;;;;;;;;;;4991935;28;20069;-84
2023/04/05 03:13:17;;;;;;;16.23;9.27;;;;;;;;;;4981623;28;20058;-84
2023/04/05 03:15:43;;;;;;;17.77;9.38;;;;;;;;;;5006108;28;20045;-85
2023/04/05 03:18:10;;;;;;;17.25;9.32;;;;;;;;;;4989272;28;20439;-84
2023/04/05 03:20:40;;;;;;;16.25;10.05;;;;;;;;;;5009979;28;20046;-84
2023/04/05 03:23:10;;;;;;;18.45;9.73;;;;;;;;;;4992838;28;20125;-84
2023/04/05 03:25:36;;;;;;;18.70;9.07;;;;;;;;;;4992106;28;20046;-85
2023/04/05 03:28:05;;;;;;;18.02;9.25;;;;;;;;;;5001955;28;20039;-86
2023/04/05 03:30:35;;;;;;;16.70;9.13;;;;;;;;;;5001569;28;20102;-85
2023/04/05 03:33:04;;;;;;;17.17;10.13;;;;;;;;;;4993205;28;20046;-85
2023/04/05 03:35:33;;;;;;;18.38;9.30;;;;;;;;;;4994311;28;20042;-84
2023/04/05 03:37:59;;;;;;;14.68;9.25;;;;;;;;;;4990721;28;20050;-85
2023/04/05 03:40:25;;;;;;;16.65;10.10;;;;;;;;;;4995339;28;20042;-85
2023/04/05 03:42:52;;;;;;;18.65;9.43;;;;;;;;;;5005812;28;20066;-86
2023/04/05 03:45:18;;;;;;;19.05;10.15;;;;;;;;;;4991508;28;20070;-86
2023/04/05 03:47:44;;;;;;;17.52;9.43;;;;;;;;;;4994207;28;20039;-85
2023/04/05 03:50:10;;;;;;;17.02;10.02;;;;;;;;;;4994416;28;20042;-86
2023/04/05 03:52:37;;;;;;;15.27;9.27;;;;;;;;;;5006229;28;20078;-86
2023/04/05 03:55:03;;;;;;;18.30;10.07;;;;;;;;;;4994322;28;20043;-86
2023/04/05 03:57:29;;;;;;;15.93;8.95;;;;;;;;;;4988632;28;20059;-86
2023/04/05 03:59:56;;;;;;;17.92;9.75;;;;;;;;;;5008125;28;20052;-84
2023/04/05 04:02:22;;;;;;;14.88;9.45;;;;;;;;;;5006915;28;20070;-83
2023/04/05 04:04:48;;;;;;;16.63;9.13;;;;;;;;;;4993420;28;20038;-84
2023/04/05 04:07:15;;;;;;;17.23;9.50;;;;;;;;;;5007659;28;20090;-84
2023/04/05 04:09:41;;;;;;;17.15;10.93;;;;;;;;;;4990467;28;20058;-85
2023/04/05 04:12:07;;;;;;;17.63;9.70;;;;;;;;;;4989500;28;20050;-85
2023/04/05 04:14:36;;;;;;;17.55;10.18;;;;;;;;;;5007471;28;20042;-85
2023/04/05 04:17:02;;;;;;;17.55;9.70;;;;;;;;;;4989949;28;20057;-87
2023/04/05 04:19:29;;;;;;;15.52;9.43;;;;;;;;;;4991079;28;20046;-85
2023/04/05 04:21:55;;;;;;;15.85;8.63;;;;;;;;;;5006235;28;20046;-87
2023/04/05 04:24:21;;;;;;;20.27;8.85;;;;;;;;;;5006541;28;20392;-87
2023/04/05 04:26:48;;;;;;;21.38;10.82;;;;;;;;;;5005545;28;20053;-88
2023/04/05 04:29:17;;;;;;;15.00;9.27;;;;;;;;;;5006987;28;20035;-84
2023/04/05 04:31:48;;;;;;;16.15;9.63;;;;;;;;;;5010580;28;20107;-84
2023/04/05 04:34:17;;;;;;;17.80;8.57;;;;;;;;;;4994106;28;20051;-85
2023/04/05 04:36:47;;;;;;;18.98;9.07;;;;;;;;;;5009268;28;20049;-84
2023/04/05 04:39:13;;;;;;;12.23;7.47;;;;;;;;;;5009349;28;20045;-84
2023/04/05 04:41:45;;;;;;;14.70;8.25;;;;;;;;;;5005315;28;20049;-84
2023/04/05 04:44:13;;;;;;;14.32;8.27;;;;;;;;;;4987773;28;20038;-84
2023/04/05 04:46:42;;;;;;;14.50;8.90;;;;;;;;;;5012405;28;20046;-87
2023/04/05 04:49:12;;;;;;;14.40;8.38;;;;;;;;;;4994551;28;20078;-85
2023/04/05 04:51:38;;;;;;;14.48;8.43;;;;;;;;;;4989862;28;20105;-85
2023/04/05 04:54:05;;;;;;;16.13;9.95;;;;;;;;;;5004183;28;20035;-85
2023/04/05 04:56:31;;;;;;;18.30;10.20;;;;;;;;;;5001346;28;20073;-85
2023/04/05 04:58:57;;;;;;;19.13;10.40;;;;;;;;;;5010313;28;20049;-82
2023/04/05 05:01:23;;;;;;;18.42;11.10;;;;;;;;;;5012419;28;20049;-84
2023/04/05 05:03:50;;;;;;;18.77;10.27;;;;;;;;;;5011088;28;20051;-84
2023/04/05 05:06:18;;;;;;;19.42;10.82;;;;;;;;;;4994193;28;20050;-83
2023/04/05 05:08:48;;;;;;;21.20;11.68;;;;;;;;;;4993230;28;20046;-83
2023/04/05 05:11:14;;;;;;;21.70;12.55;;;;;;;;;;4984005;28;20106;-84
2023/04/05 05:13:40;;;;;;;25.75;11.80;;;;;;;;;;5006228;28;20058;-84
2023/04/05 05:16:08;;;;;;;18.55;11.30;;;;;;;;;;5009382;28;20050;-84
2023/04/05 05:18:35;;;;;;;19.27;11.50;;;;;;;;;;4994096;28;20045;-84
2023/04/05 05:21:01;;;;;;;19.88;11.45;;;;;;;;;;5006867;28;20042;-84
2023/04/05 05:23:27;;;;;;;22.40;13.60;;;;;;;;;;5007803;28;20049;-84
2023/04/05 05:26:00;;;;;;;21.63;14.02;;;;;;;;;;4991963;28;20049;-85
2023/04/05 05:28:26;;;;;;;22.60;14.07;;;;;;;;;;5002714;28;20046;-86
2023/04/05 05:30:53;;;;;;;23.50;14.75;;;;;;;;;;4990893;28;21526;-89
2023/04/05 05:33:19;;;;;;;22.65;14.48;;;;;;;;;;4984932;28;20098;-82
2023/04/05 05:35:50;;;;;;;25.85;14.13;;;;;;;;;;4990151;28;20511;-84
2023/04/05 05:38:16;;;;;;;25.20;15.35;;;;;;;;;;5000964;28;20038;-85
2023/04/05 05:40:42;;;;;;;26.60;15.48;;;;;;;;;;4999972;28;20500;-84
2023/04/05 05:43:09;;;;;;;25.40;16.63;;;;;;;;;;5000814;28;20388;-83
2023/04/05 05:45:36;;;;;;;23.17;14.68;;;;;;;;;;4985901;28;20046;-85
2023/04/05 05:48:02;;;;;;;19.05;13.25;;;;;;;;;;4986546;28;20043;-85
2023/04/05 05:50:31;;;;;;;18.48;12.82;;;;;;;;;;5004964;28;20051;-86
2023/04/05 05:52:58;;;;;;;20.15;12.05;;;;;;;;;;5000827;28;20065;-85
2023/04/05 05:55:24;;;;;;;17.25;11.82;;;;;;;;;;4999355;28;20042;-86
2023/04/05 05:57:53;;;;;;;19.10;11.65;;;;;;;;;;4982831;28;20042;-86
2023/04/05 06:00:20;;;;;;;17.65;11.98;;;;;;;;;;4978540;28;20484;-84
2023/04/05 06:02:46;;;;;;;18.70;12.00;;;;;;;;;;4998630;28;20118;-84
2023/04/05 06:05:13;;;;;;;16.60;11.23;;;;;;;;;;4981671;28;20038;-85
2023/04/05 06:07:39;;;;;;;15.30;11.55;;;;;;;;;;5002592;28;20053;-85
2023/04/05 06:10:08;;;;;;;17.52;11.32;;;;;;;;;;4986043;28;20058;-84
2023/04/05 06:12:34;;;;;;;17.00;11.13;;;;;;;;;;4997766;28;20046;-86
2023/04/05 06:15:01;;;;;;;15.02;10.60;;;;;;;;;;4985216;28;20515;-89
2023/04/05 06:17:27;;;;;;;14.15;10.43;;;;;;;;;;4997445;28;20042;-85
2023/04/05 06:19:53;;;;;;;17.98;11.63;;;;;;;;;;4984437;28;20086;-85
2023/04/05 06:22:21;;;;;;;15.50;10.65;;;;;;;;;;4986776;28;20058;-85
2023/04/05 06:24:48;;;;;;;14.95;10.63;;;;;;;;;;5002802;28;20046;-84
2023/04/05 06:27:14;;;;;;;15.07;10.77;;;;;;;;;;4988190;28;20055;-86
2023/04/05 06:29:47;;;;;;;15.45;10.35;;;;;;;;;;4983465;28;20071;-85
2023/04/05 06:32:13;;;;;;;15.30;10.75;;;;;;;;;;4979905;28;20050;-85
2023/04/05 06:34:45;;;;;;;17.95;10.38;;;;;;;;;;5002942;28;20056;-86
2023/04/05 06:37:14;;;;;;;15.82;9.90;;;;;;;;;;4984081;28;20058;-86
2023/04/05 06:39:40;;;;;;;13.98;10.30;;;;;;;;;;5000491;28;20500;-86
2023/04/05 06:42:09;;;;;;;16.80;10.48;;;;;;;;;;5002105;28;20042;-86
2023/04/05 06:44:35;;;;;;;13.38;9.55;;;;;;;;;;4991008;28;20065;-87
2023/04/05 06:47:03;;;;;;;14.13;9.82;;;;;;;;;;4973950;28;20038;-88
2023/04/05 06:49:30;;;;;;;13.02;10.32;;;;;;;;;;4998453;28;20073;-87
2023/04/05 06:51:56;;;;;;;17.17;9.82;;;;;;;;;;4984725;28;20076;-87
2023/04/05 06:54:23;;;;;;;13.35;9.73;;;;;;;;;;4983002;28;20050;-87
2023/04/05 06:56:55;;;;;;;14.65;10.15;;;;;;;;;;4982080;28;20417;-86
2023/04/05 06:59:21;;;;;;;13.77;9.23;;;;;;;;;;4966390;28;20098;-86
2023/04/05 07:01:47;;;;;;;14.98;9.35;;;;;;;;;;4964729;28;20089;-85
2023/04/05 07:04:16;;;;;;;15.05;9.32;;;;;;;;;;4967863;28;20053;-86
2023/04/05 07:06:48;;;;;;;12.02;9.27;;;;;;;;;;4999705;28;20531;-86
2023/04/05 07:09:19;;;;;;;19.60;11.82;;;;;;;;;;4968507;28;20047;-89
2023/04/05 07:11:45;;;;;;;14.15;8.55;;;;;;;;;;4987861;28;20059;-86
2023/04/05 07:14:14;;;;;;;18.90;12.52;;;;;;;;;;4966461;28;20055;-86
2023/04/05 07:16:43;;;;;;;12.02;9.07;;;;;;;;;;4985887;28;20061;-90
2023/04/05 07:19:30;;;;;;;13.02;9.18;;;;;;;;;;5001022;28;20034;-89
2023/04/05 07:22:12;;;;;;;14.60;9.82;;;;;;;;;;4991735;28;20053;-86
2023/04/05 07:25:04;;;;;;;;;;;;;;;;;;;;;
2023/04/05 07:30:46;;;;;;;;;;;;;;;;;;4981944;28;20078;-86
2023/04/05 07:33:21;;;;;;;13.73;9.20;;;;;;;;;;4982253;28;20426;-86
2023/04/05 07:36:18;;;;;;;14.63;8.90;;;;;;;;;;4981972;28;20042;-86
2023/04/05 07:39:00;;;;;;;14.05;8.48;;;;;;;;;;4963551;28;20038;-86
2023/04/05 07:41:45;;;;;;;13.30;9.20;;;;;;;;;;4964273;28;20077;-86
2023/04/05 07:44:11;;;;;;;12.55;9.25;;;;;;;;;;4976226;28;20411;-86
2023/04/05 07:47:12;;;;;;;14.05;9.32;;;;;;;;;;4977466;28;20556;-86
2023/04/05 07:49:56;;;;;;;15.90;8.88;;;;;;;;;;4890678;29;20183;-86
2023/04/05 07:52:32;;;;;;;11.80;8.50;;;;;;;;;;4890090;29;20487;-85
2023/04/05 08:01:42;;;;;;;11.70;7.53;;;;;;;;;;4912526;29;20337;-87
2023/04/05 08:04:19;;;;;;;13.15;7.90;;;;;;;;;;4884968;29;20168;-85
2023/04/05 08:06:45;;;;;;;11.15;5.95;;;;;;;;;;4897039;29;20059;-84
2023/04/05 08:09:11;;;;;;;11.93;7.60;;;;;;;;;;4912820;29;20048;-84
2023/04/05 08:11:38;;;;;;;11.27;8.00;;;;;;;;;;4906454;29;20055;-85
2023/04/05 08:14:04;;;;;;;11.23;7.30;;;;;;;;;;4891379;29;20049;-86
2023/04/05 08:16:33;;;;;;;15.77;7.60;;;;;;;;;;4907645;29;20040;-85
2023/04/05 08:19:02;;;;;;;12.98;7.40;;;;;;;;;;4912293;29;20056;-84
2023/04/05 08:21:31;;;;;;;11.07;7.55;;;;;;;;;;4911348;29;20104;-85
2023/04/05 08:23:57;;;;;;;11.73;7.45;;;;;;;;;;4921118;29;20041;-85
2023/04/05 08:26:23;;;;;;;11.68;7.97;;;;;;;;;;4915627;28;20046;-84
2023/04/05 08:28:50;;;;;;;12.75;8.45;;;;;;;;;;5004022;28;20050;-86
2023/04/05 08:31:19;;;;;;;10.82;6.55;;;;;;;;;;4989455;28;20496;-86
2023/04/05 08:33:45;;;;;;;12.05;7.47;;;;;;;;;;5004044;28;20050;-87
2023/04/05 08:36:14;;;;;;;9.43;5.70;;;;;;;;;;5008561;28;20049;-86
2023/04/05 08:38:42;;;;;;;10.90;6.00;;;;;;;;;;4984653;28;20057;-87
2023/04/05 08:41:17;;;;;;;11.48;6.30;;;;;;;;;;5003105;28;20038;-86
2023/04/05 08:43:52;;;;;;;10.93;6.32;;;;;;;;;;5005738;28;20183;-86
2023/04/05 08:46:19;;;;;;;10.20;5.90;;;;;;;;;;5008520;28;20055;-86
2023/04/05 08:48:45;;;;;;;9.52;5.68;;;;;;;;;;5006484;28;20050;-86
2023/04/05 08:51:11;;;;;;;10.00;5.85;;;;;;;;;;5006915;28;20113;-86
2023/04/05 08:53:37;;;;;;;11.77;6.30;;;;;;;;;;5007875;28;20129;-87
2023/04/05 08:56:04;;;;;;;10.45;5.78;;;;;;;;;;5001962;28;20042;-87
2023/04/05 08:58:32;;;;;;;9.85;5.13;;;;;;;;;;4983649;28;20070;-86
2023/04/05 09:01:00;;;;;;;9.93;5.95;;;;;;;;;;4982767;28;20043;-86
2023/04/05 09:03:31;;;;;;;8.57;5.20;;;;;;;;;;5001852;28;20046;-87
2023/04/05 09:06:00;;;;;;;10.02;5.22;;;;;;;;;;4981972;28;20042;-89
2023/04/05 09:08:26;;;;;;;9.05;5.00;;;;;;;;;;4983568;28;20043;-90
2023/04/05 09:10:55;;;;;;;8.68;4.40;;;;;;;;;;4988683;28;20441;-86
2023/04/05 09:13:27;;;;;;;9.02;4.38;;;;;;;;;;4998108;28;20050;-87
2023/04/05 09:15:53;;;;;;;10.07;4.25;;;;;;;;;;5004296;28;20112;-87
2023/04/05 09:18:19;;;;;;;8.05;3.95;;;;;;;;;;4977766;28;20047;-86
2023/04/05 09:20:45;;;;;;;6.55;3.45;;;;;;;;;;5001588;28;20078;-85
2023/04/05 09:23:14;;;;;;;8.75;3.67;;;;;;;;;;4983315;28;20559;-86
2023/04/05 09:25:45;;;;;;;7.47;3.80;;;;;;;;;;4983391;28;20158;-88
2023/04/05 09:28:11;;;;;;;8.88;3.92;;;;;;;;;;4996923;28;20089;-87
2023/04/05 09:30:38;;;;;;;8.23;3.67;;;;;;;;;;4993928;28;20039;-85
2023/04/05 09:33:09;;;;;;;8.90;3.85;;;;;;;;;;5003129;28;20051;-86
2023/04/05 09:35:37;;;;;;;7.28;3.97;;;;;;;;;;5000412;28;20043;-86
2023/04/05 09:38:04;;;;;;;8.88;3.75;;;;;;;;;;4991231;28;20129;-87
2023/04/05 09:40:43;;;;;;;8.55;4.35;;;;;;;;;;5004220;28;20046;-86
2023/04/05 09:43:12;;;;;;;8.07;3.08;;;;;;;;;;4999819;28;20673;-86
2023/04/05 09:45:44;;;;;;;9.35;3.50;;;;;;;;;;5000961;28;20121;-86
2023/04/05 09:48:41;;;;;;;;;;;;;;;;;;;;;
2023/04/05 09:51:07;;;;;;;8.75;4.32;;;;;;;;;;5013280;28;20046;-85
2023/04/05 09:53:34;;;;;;;8.18;4.53;;;;;;;;;;4994964;28;20039;-85
2023/04/05 09:56:08;;;;;;;10.35;4.82;;;;;;;;;;4988661;28;20504;-88
2023/04/05 09:58:37;;;;;;;11.13;4.43;;;;;;;;;;4988322;28;20022;-86
2023/04/05 10:01:04;;;;;;;14.65;5.65;;;;;;;;;;5000321;28;20053;-85
2023/04/05 10:03:30;;;;;;;14.25;4.40;;;;;;;;;;5005859;28;20042;-87
2023/04/05 10:06:02;;;;;;;8.55;4.50;;;;;;;;;;4983771;28;20078;-87
2023/04/05 10:08:29;;;;;;;7.78;4.07;;;;;;;;;;5017834;28;20104;-87
2023/04/05 10:10:57;;;;;;;9.25;3.97;;;;;;;;;;4989241;28;20054;-86
2023/04/05 10:13:24;;;;;;;8.20;4.65;;;;;;;;;;5000596;28;20058;-86
2023/04/05 10:15:54;;;;;;;9.10;3.90;;;;;;;;;;4985557;28;20054;-87
2023/04/05 10:18:30;;;;;;;8.40;4.03;;;;;;;;;;4998163;28;20042;-85
2023/04/05 10:20:59;;;;;;;8.25;3.78;;;;;;;;;;4975515;28;20317;-86
2023/04/05 10:23:27;;;;;;;10.70;4.45;;;;;;;;;;4986965;28;20038;-85
2023/04/05 10:25:53;;;;;;;7.70;4.03;;;;;;;;;;5007368;28;20042;-85
2023/04/05 10:28:31;;;;;;;8.65;3.90;;;;;;;;;;4988938;28;20080;-85
2023/04/05 10:31:18;;;;;;;8.50;4.53;;;;;;;;;;5004916;28;20129;-85
2023/04/05 10:33:46;;;;;;;8.13;4.20;;;;;;;;;;5006380;28;20059;-85
2023/04/05 10:36:36;;;;;;;8.52;4.53;;;;;;;;;;4998174;28;20046;-86
2023/04/05 10:39:09;;;;;;;8.38;4.57;;;;;;;;;;5016835;28;20035;-84
2023/04/05 10:41:39;;;;;;;8.07;4.35;;;;;;;;;;4986754;28;20047;-85
2023/04/05 10:44:08;;;;;;;8.43;4.30;;;;;;;;;;5005603;28;20054;-85
2023/04/05 10:46:36;;;;;;;9.38;4.82;;;;;;;;;;5003646;28;20309;-85
2023/04/05 10:49:21;;;;;;;8.63;4.63;;;;;;;;;;4999448;28;20050;-86
2023/04/05 10:51:47;;;;;;;9.05;4.53;;;;;;;;;;4999235;28;20102;-85
2023/04/05 10:54:17;;;;;;;7.57;4.47;;;;;;;;;;4999412;28;20116;-85
2023/04/05 10:56:43;;;;;;;7.88;4.18;;;;;;;;;;4998722;28;20038;-86
2023/04/05 10:59:11;;;;;;;8.32;4.80;;;;;;;;;;4995275;28;20058;-85
2023/04/05 11:01:39;;;;;;;9.23;4.20;;;;;;;;;;4999105;28;20043;-85
2023/04/05 11:04:12;;;;;;;7.90;4.20;;;;;;;;;;5002746;28;20046;-85
2023/04/05 11:06:38;;;;;;;9.40;4.50;;;;;;;;;;4999580;28;20042;-83
2023/04/05 11:09:10;;;;;;;9.07;4.60;;;;;;;;;;4983738;28;20046;-83
2023/04/05 11:11:36;;;;;;;;;;;;;;;;;;5004941;28;20054;-85
2023/04/05 11:14:16;;;;;;;9.05;4.65;;;;;;;;;;4989669;28;19962;-83
2023/04/05 11:16:45;;;;;;;8.77;4.65;;;;;;;;;;5003780;28;20048;-84
2023/04/05 11:19:12;;;;;;;8.73;4.40;;;;;;;;;;5003170;28;20122;-84
2023/04/05 11:21:38;;;;;;;8.57;4.35;;;;;;;;;;5004362;28;20061;-83
2023/04/05 11:24:05;;;;;;;10.57;4.80;;;;;;;;;;5001703;28;20046;-83
2023/04/05 11:26:40;;;;;;;9.07;4.32;;;;;;;;;;5002002;28;20404;-83
2023/04/05 11:29:07;;;;;;;7.75;4.40;;;;;;;;;;5003999;28;20102;-84
2023/04/05 11:31:33;;;;;;;9.57;4.68;;;;;;;;;;5007579;28;20138;-83
2023/04/05 11:34:08;;;;;;;8.40;4.40;;;;;;;;;;5006921;28;20057;-83
2023/04/05 11:36:35;;;;;;;8.60;4.47;;;;;;;;;;5007378;28;20065;-83
2023/04/05 11:39:16;;;;;;;9.32;4.35;;;;;;;;;;5003813;28;20074;-85
2023/04/05 11:41:43;;;;;;;8.15;4.07;;;;;;;;;;5003639;28;20393;-84
2023/04/05 11:44:14;;;;;;;7.18;4.25;;;;;;;;;;5005623;28;20046;-84
2023/04/05 11:46:41;;;;;;;8.85;4.50;;;;;;;;;;4995150;28;20061;-83
2023/04/05 11:49:07;;;;;;;10.50;4.47;;;;;;;;;;4998968;28;20050;-83
2023/04/05 11:51:34;;;;;;;7.22;4.40;;;;;;;;;;5005345;28;20130;-83
2023/04/05 11:54:00;;;;;;;9.25;4.85;;;;;;;;;;5011356;28;20053;-84
2023/04/05 11:56:26;;;;;;;9.35;4.30;;;;;;;;;;5006826;28;20049;-84
2023/04/05 11:58:52;;;;;;;8.75;4.40;;;;;;;;;;5011370;28;20074;-83
2023/04/05 12:01:18;;;;;;;8.52;3.92;;;;;;;;;;5008423;28;20077;-83
2023/04/05 12:03:44;;;;;;;7.97;4.20;;;;;;;;;;5012306;28;20069;-82
2023/04/05 12:06:10;;;;;;;7.90;4.20;;;;;;;;;;5016314;28;20052;-86
2023/04/05 12:08:40;;;;;;;10.55;4.40;;;;;;;;;;5005521;28;20046;-83
2023/04/05 12:11:08;;;;;;;7.17;4.00;;;;;;;;;;5008641;28;20046;-82
2023/04/05 12:13:34;;;;;;;8.38;4.40;;;;;;;;;;5010831;28;20050;-82
2023/04/05 12:16:08;;;;;;;11.77;4.53;;;;;;;;;;5004817;28;20113;-81
2023/04/05 12:18:35;;;;;;;7.80;4.38;;;;;;;;;;5002103;28;20057;-82
2023/04/05 12:21:01;;;;;;;8.27;4.32;;;;;;;;;;5006451;28;20045;-83
2023/04/05 12:23:27;;;;;;;8.73;4.13;;;;;;;;;;5007337;28;20034;-81
2023/04/05 12:25:54;;;;;;;10.10;4.30;;;;;;;;;;5012498;28;20129;-80
2023/04/05 12:28:21;;;;;;;8.23;3.97;;;;;;;;;;5006996;28;20054;-83
2023/04/05 12:30:54;;;;;;;6.95;4.10;;;;;;;;;;5005582;28;20047;-83
2023/04/05 12:33:31;;;;;;;7.35;3.92;;;;;;;;;;5011252;28;20057;-83
2023/04/05 12:35:57;;;;;;;6.88;3.88;;;;;;;;;;5008227;28;20054;-85
2023/04/05 12:38:26;;;;;;;9.88;3.90;;;;;;;;;;5008740;28;20066;-84
2023/04/05 12:40:53;;;;;;;7.60;4.18;;;;;;;;;;5013487;28;20094;-84
2023/04/05 12:43:19;;;;;;;9.05;4.00;;;;;;;;;;5013549;28;20069;-83
2023/04/05 12:45:49;;;;;;;8.35;3.80;;;;;;;;;;5010363;28;20046;-83
2023/04/05 12:48:20;;;;;;;11.13;3.90;;;;;;;;;;5001829;28;20061;-84
2023/04/05 12:50:47;;;;;;;10.02;4.22;;;;;;;;;;5003252;28;20038;-84
2023/04/05 12:53:18;;;;;;;7.40;3.70;;;;;;;;;;5001384;28;20046;-83
2023/04/05 12:55:47;;;;;;;8.10;4.20;;;;;;;;;;5006280;28;20051;-83
2023/04/05 12:58:16;;;;;;;8.18;4.10;;;;;;;;;;4992711;28;20047;-84
2023/04/05 13:00:42;;;;;;;6.95;4.00;;;;;;;;;;5007201;28;20065;-83
2023/04/05 13:03:15;;;;;;;10.13;4.20;;;;;;;;;;5000671;28;20134;-84
2023/04/05 13:05:41;;;;;;;10.32;4.35;;;;;;;;;;5000033;28;20073;-83
2023/04/05 13:08:07;;;;;;;7.47;4.07;;;;;;;;;;4999403;28;20043;-85
2023/04/05 13:10:33;;;;;;;8.02;4.20;;;;;;;;;;5003625;28;20054;-83
2023/04/05 13:12:59;;;;;;;6.47;4.07;;;;;;;;;;5007022;28;20066;-84
2023/04/05 13:15:26;;;;;;;7.63;4.00;;;;;;;;;;5000745;28;20042;-83
2023/04/05 13:17:53;;;;;;;7.03;4.13;;;;;;;;;;5000131;28;20043;-84
2023/04/05 13:20:20;;;;;;;8.90;4.45;;;;;;;;;;4998150;28;20047;-84
2023/04/05 13:22:46;;;;;;;8.35;4.07;;;;;;;;;;5000110;28;20045;-83
2023/04/05 13:25:13;;;;;;;10.02;4.05;;;;;;;;;;5001744;28;20034;-83
2023/04/05 13:27:39;;;;;;;7.80;4.38;;;;;;;;;;5002612;28;20046;-84
2023/04/05 13:30:06;;;;;;;9.45;4.82;;;;;;;;;;4999176;28;20074;-84
2023/04/05 13:32:33;;;;;;;8.43;4.57;;;;;;;;;;4987084;28;20035;-82
2023/04/05 13:34:59;;;;;;;7.90;4.30;;;;;;;;;;5003411;28;20046;-84
2023/04/05 13:37:25;;;;;;;7.05;4.07;;;;;;;;;;4985863;28;20066;-84
2023/04/05 13:39:51;;;;;;;9.25;4.07;;;;;;;;;;4999225;28;20050;-84
2023/04/05 13:42:18;;;;;;;9.60;4.00;;;;;;;;;;4980247;28;20140;-81
2023/04/05 13:44:44;;;;;;;8.80;4.22;;;;;;;;;;5005107;28;20046;-83
2023/04/05 13:47:10;;;;;;;7.47;4.40;;;;;;;;;;5003749;28;20081;-83
2023/04/05 13:49:36;;;;;;;7.68;4.07;;;;;;;;;;4982251;28;20038;-82
2023/04/05 13:52:04;;;;;;;7.72;4.25;;;;;;;;;;4999840;28;20080;-83
2023/04/05 13:54:30;;;;;;;9.25;4.35;;;;;;;;;;4998695;28;20049;-83
2023/04/05 13:56:57;;;;;;;6.60;3.88;;;;;;;;;;4997097;28;20074;-84
2023/04/05 13:59:24;;;;;;;9.00;4.18;;;;;;;;;;4999422;28;20086;-84
2023/04/05 14:01:50;;;;;;;8.40;4.03;;;;;;;;;;5000360;28;20057;-83
2023/04/05 14:04:17;;;;;;;7.18;4.00;;;;;;;;;;4981614;28;20035;-84
2023/04/05 14:06:43;;;;;;;8.98;3.97;;;;;;;;;;5004831;28;20146;-84
2023/04/05 14:09:09;;;;;;;8.02;4.03;;;;;;;;;;5003303;28;20038;-83
2023/04/05 14:11:35;;;;;;;8.77;3.83;;;;;;;;;;4984770;28;20050;-84
2023/04/05 14:14:02;;;;;;;8.30;3.90;;;;;;;;;;4999073;28;20081;-83
2023/04/05 14:16:28;;;;;;;7.47;3.92;;;;;;;;;;4984132;28;20050;-84
2023/04/05 14:18:55;;;;;;;7.63;3.75;;;;;;;;;;4981641;28;20082;-84
2023/04/05 14:21:21;;;;;;;7.13;3.88;;;;;;;;;;5001712;28;20042;-84
2023/04/05 14:23:55;;;;;;;8.32;3.50;;;;;;;;;;4977773;28;20055;-84
2023/04/05 14:26:21;;;;;;;7.47;4.00;;;;;;;;;;4998618;28;20039;-84
2023/04/05 14:28:48;;;;;;;7.78;3.72;;;;;;;;;;4996042;28;20050;-85
2023/04/05 14:31:14;;;;;;;7.13;3.60;;;;;;;;;;4977138;28;20066;-84
2023/04/05 14:33:43;;;;;;;9.02;3.92;;;;;;;;;;4984402;28;20055;-83
2023/04/05 14:36:09;;;;;;;8.05;3.90;;;;;;;;;;4998877;28;20057;-84
2023/04/05 14:38:35;;;;;;;10.63;3.97;;;;;;;;;;5000045;28;20042;-83
2023/04/05 14:41:03;;;;;;;7.85;3.70;;;;;;;;;;4979833;28;20077;-84
2023/04/05 14:43:31;;;;;;;6.32;3.53;;;;;;;;;;5000192;28;20050;-85
2023/04/05 14:45:57;;;;;;;6.68;3.83;;;;;;;;;;4980583;28;20050;-84
2023/04/05 14:48:24;;;;;;;8.18;4.13;;;;;;;;;;5001103;28;20046;-84
2023/04/05 14:50:50;;;;;;;8.63;3.80;;;;;;;;;;4992825;28;20085;-83
2023/04/05 14:53:16;;;;;;;6.78;3.90;;;;;;;;;;4993939;28;20046;-83
2023/04/05 14:55:45;;;;;;;7.78;4.20;;;;;;;;;;4981037;28;20481;-82
2023/04/05 14:58:11;;;;;;;6.93;3.88;;;;;;;;;;4996074;28;20039;-84